Terminal Aerodrome Forecast
Issued by NWS

Home | Current Version | Previous Version | Text Only | Print | Product List | Glossary On
Versions: 1 2 3 4 5 6 7 8 9 10 11 12 13 14 15 16 17 18
690
FTUS41 KPHI 201131
TAFMIV
TAF
KMIV 201131Z 2012/2112 22006KT P6SM VCSH SCT018 OVC040
      TEMPO 2012/2014 BKN020
     FM201900 25010G19KT P6SM SHRA BKN040
     FM202300 32005KT P6SM SCT040
     FM210600 VRB02KT 5SM BR SCT250=

USA.gov is the U.S. government's official web portal to all federal, state and local government web resources and services.